createdAt,value
2019-03-13T00:00:28.419Z,993.53
2019-03-13T00:01:28.349Z,993.52
2019-03-13T00:02:28.302Z,993.63
2019-03-13T00:03:28.295Z,993.68
2019-03-13T00:04:28.271Z,993.61
2019-03-13T00:05:28.277Z,993.62
2019-03-13T00:06:28.262Z,993.64
2019-03-13T00:07:28.268Z,993.69
2019-03-13T00:08:28.242Z,993.68
2019-03-13T00:09:28.218Z,993.58
2019-03-13T00:10:28.204Z,993.61
2019-03-13T00:11:28.200Z,993.66
2019-03-13T00:12:28.187Z,993.54
2019-03-13T00:13:28.176Z,993.44
2019-03-13T00:14:28.171Z,993.54
2019-03-13T00:15:28.154Z,993.54
2019-03-13T00:16:28.148Z,993.51
2019-03-13T00:17:28.132Z,993.40
2019-03-13T00:18:28.138Z,993.34
2019-03-13T00:19:28.118Z,993.41
2019-03-13T00:20:28.102Z,993.36
2019-03-13T00:21:28.090Z,993.29
2019-03-13T00:22:28.078Z,993.35
2019-03-13T00:23:28.066Z,993.35
2019-03-13T00:24:28.061Z,993.35
2019-03-13T00:25:28.054Z,993.35
2019-03-13T00:26:28.031Z,993.19
2019-03-13T00:27:28.032Z,993.30
2019-03-13T00:28:28.036Z,993.36
2019-03-13T00:29:28.008Z,993.22
2019-03-13T00:30:27.994Z,993.31
2019-03-13T00:31:27.989Z,993.21
2019-03-13T00:32:27.975Z,993.22
2019-03-13T00:33:27.962Z,993.19
2019-03-13T00:34:27.954Z,993.19
2019-03-13T00:35:27.954Z,993.10
2019-03-13T00:36:27.931Z,993.22
2019-03-13T00:37:27.925Z,993.19
2019-03-13T00:38:27.905Z,993.13
2019-03-13T00:39:27.895Z,993.09
2019-03-13T00:40:27.888Z,993.16
2019-03-13T00:41:27.892Z,993.14
2019-03-13T00:42:27.870Z,993.28
2019-03-13T00:43:27.854Z,993.09
2019-03-13T00:44:27.854Z,993.30
2019-03-13T00:45:27.838Z,993.21
2019-03-13T00:46:27.820Z,993.16
2019-03-13T00:47:27.810Z,993.19
2019-03-13T00:48:27.810Z,993.18
2019-03-13T00:49:27.795Z,993.25
2019-03-13T00:50:27.778Z,993.05
2019-03-13T00:51:27.765Z,993.14
2019-03-13T00:52:27.767Z,993.19
2019-03-13T00:53:27.754Z,993.17
2019-03-13T00:54:27.740Z,993.14
2019-03-13T00:55:27.720Z,993.16
2019-03-13T00:56:27.711Z,993.15
2019-03-13T00:57:27.699Z,993.14
2019-03-13T00:58:27.687Z,993.02
2019-03-13T00:59:27.677Z,993.02
2019-03-13T01:00:27.670Z,993.02
2019-03-13T01:01:27.663Z,992.94
2019-03-13T01:02:27.645Z,993.01
2019-03-13T01:03:27.637Z,993.07
2019-03-13T01:04:27.623Z,993.00
2019-03-13T01:05:27.622Z,992.97
2019-03-13T01:06:27.606Z,992.98
2019-03-13T01:07:27.601Z,993.00
2019-03-13T01:08:27.581Z,993.00
2019-03-13T01:09:27.581Z,993.12
2019-03-13T01:10:27.565Z,993.02
2019-03-13T01:11:27.609Z,993.14
2019-03-13T01:12:27.541Z,993.10
2019-03-13T01:13:27.530Z,993.16
2019-03-13T01:14:27.520Z,993.12
2019-03-13T01:15:27.507Z,993.17
2019-03-13T01:16:27.504Z,993.14
2019-03-13T01:17:27.497Z,993.04
2019-03-13T01:18:27.483Z,992.98
2019-03-13T01:19:27.467Z,993.20
2019-03-13T01:20:27.452Z,993.19
2019-03-13T01:21:27.446Z,993.16
2019-03-13T01:22:27.436Z,993.25
2019-03-13T01:23:27.419Z,993.29
2019-03-13T01:24:27.413Z,993.36
2019-03-13T01:25:27.397Z,993.46
2019-03-13T01:26:27.403Z,993.37
2019-03-13T01:27:27.383Z,993.36
2019-03-13T01:28:27.375Z,993.36
2019-03-13T01:29:27.361Z,993.31
2019-03-13T01:30:27.352Z,993.46
2019-03-13T01:31:27.341Z,993.47
2019-03-13T01:32:27.329Z,993.44
2019-03-13T01:33:27.321Z,993.37
2019-03-13T01:34:27.316Z,993.44
2019-03-13T01:35:27.327Z,993.45
2019-03-13T01:36:27.281Z,993.32
2019-03-13T01:37:27.272Z,993.46
2019-03-13T01:38:27.262Z,993.39
2019-03-13T01:39:27.254Z,993.46
2019-03-13T01:40:27.247Z,993.34
2019-03-13T01:41:27.234Z,993.50
2019-03-13T01:42:27.216Z,993.49
2019-03-13T01:43:27.213Z,993.35
2019-03-13T01:44:27.198Z,993.34
2019-03-13T01:45:27.189Z,993.41
2019-03-13T01:46:27.177Z,993.40
2019-03-13T01:47:27.161Z,993.43
2019-03-13T01:48:27.159Z,993.37
2019-03-13T01:49:27.138Z,993.33
2019-03-13T01:50:27.136Z,993.30
2019-03-13T01:51:27.120Z,993.47
2019-03-13T01:52:27.114Z,993.46
2019-03-13T01:53:27.135Z,993.63
2019-03-13T01:54:27.086Z,993.51
2019-03-13T01:55:27.077Z,993.55
2019-03-13T01:56:27.068Z,993.54
2019-03-13T01:57:27.062Z,993.49
2019-03-13T01:58:27.057Z,993.47
2019-03-13T01:59:27.039Z,993.40
2019-03-13T02:00:27.035Z,993.39
2019-03-13T02:01:27.016Z,993.42
2019-03-13T02:02:27.009Z,993.38
2019-03-13T02:03:27.022Z,993.49
2019-03-13T02:04:26.981Z,993.46
2019-03-13T02:05:26.970Z,993.53
2019-03-13T02:06:26.963Z,993.50
2019-03-13T02:07:26.956Z,993.44
2019-03-13T02:08:26.951Z,993.50
2019-03-13T02:09:26.933Z,993.54
2019-03-13T02:10:26.916Z,993.53
2019-03-13T02:11:26.915Z,993.41
2019-03-13T02:12:26.901Z,993.44
2019-03-13T02:13:26.898Z,993.46
2019-03-13T02:14:26.876Z,993.59
2019-03-13T02:15:26.862Z,993.51
2019-03-13T02:16:26.854Z,993.47
2019-03-13T02:17:26.848Z,993.48
2019-03-13T02:18:26.836Z,993.44
2019-03-13T02:19:26.841Z,993.45
2019-03-13T02:20:26.813Z,993.46
2019-03-13T02:21:26.805Z,993.53
2019-03-13T02:22:26.789Z,993.38
2019-03-13T02:23:26.780Z,993.37
2019-03-13T02:24:26.772Z,993.38
2019-03-13T02:25:26.767Z,993.38
2019-03-13T02:26:26.750Z,993.31
2019-03-13T02:27:26.737Z,993.21
2019-03-13T02:28:26.727Z,993.22
2019-03-13T02:29:26.717Z,993.19
2019-03-13T02:30:26.713Z,993.21
2019-03-13T02:31:26.697Z,993.15
2019-03-13T02:32:26.680Z,993.16
2019-03-13T02:33:26.770Z,993.10
2019-03-13T02:34:26.683Z,993.09
2019-03-13T02:35:26.655Z,993.02
2019-03-13T02:36:26.769Z,993.03
2019-03-13T02:37:26.636Z,992.98
2019-03-13T02:38:26.616Z,992.95
2019-03-13T02:39:26.623Z,993.03
2019-03-13T02:40:26.617Z,992.98
2019-03-13T02:41:26.599Z,992.95
2019-03-13T02:42:26.705Z,992.97
2019-03-13T02:43:26.569Z,992.95
2019-03-13T02:44:26.579Z,993.03
2019-03-13T02:45:26.555Z,992.96
2019-03-13T02:46:26.538Z,992.98
2019-03-13T02:47:26.536Z,992.90
2019-03-13T02:48:26.532Z,992.96
2019-03-13T02:49:26.508Z,992.94
2019-03-13T02:50:26.497Z,992.93
2019-03-13T02:51:26.499Z,992.92
2019-03-13T02:52:26.477Z,992.91
2019-03-13T02:53:26.468Z,992.93
2019-03-13T02:54:26.461Z,993.02
2019-03-13T02:55:26.438Z,993.03
2019-03-13T02:56:26.450Z,992.95
2019-03-13T02:57:26.426Z,993.05
2019-03-13T02:58:26.451Z,993.00
2019-03-13T02:59:26.408Z,993.10
2019-03-13T03:00:26.384Z,993.24
2019-03-13T03:01:26.383Z,993.11
2019-03-13T03:02:26.385Z,993.14
2019-03-13T03:03:26.370Z,993.15
2019-03-13T03:04:26.352Z,993.20
2019-03-13T03:05:26.341Z,993.20
2019-03-13T03:06:26.323Z,993.21
2019-03-13T03:07:26.317Z,993.22
2019-03-13T03:08:26.310Z,993.20
2019-03-13T03:09:26.311Z,993.29
2019-03-13T03:10:26.291Z,993.31
2019-03-13T03:11:26.266Z,993.49
2019-03-13T03:12:26.255Z,993.52
2019-03-13T03:13:26.252Z,993.49
2019-03-13T03:14:26.239Z,993.58
2019-03-13T03:15:26.232Z,993.55
2019-03-13T03:16:26.227Z,993.62
2019-03-13T03:17:26.242Z,993.66
2019-03-13T03:18:26.219Z,993.57
2019-03-13T03:19:26.188Z,993.69
2019-03-13T03:20:26.186Z,993.74
2019-03-13T03:21:26.177Z,993.88
2019-03-13T03:22:26.162Z,993.98
2019-03-13T03:23:26.147Z,993.94
2019-03-13T03:24:26.183Z,993.99
2019-03-13T03:25:26.146Z,994.09
2019-03-13T03:26:26.116Z,994.02
2019-03-13T03:27:26.111Z,994.08
2019-03-13T03:28:26.087Z,993.99
2019-03-13T03:29:26.082Z,994.08
2019-03-13T03:30:26.086Z,994.09
2019-03-13T03:31:26.060Z,994.18
2019-03-13T03:32:26.050Z,994.21
2019-03-13T03:33:26.038Z,994.22
2019-03-13T03:34:26.075Z,994.25
2019-03-13T03:35:26.017Z,994.19
2019-03-13T03:36:26.008Z,994.19
2019-03-13T03:37:26.003Z,994.30
2019-03-13T03:38:25.994Z,994.24
2019-03-13T03:39:25.993Z,994.27
2019-03-13T03:40:25.970Z,994.30
2019-03-13T03:41:25.957Z,994.34
2019-03-13T03:42:25.943Z,994.34
2019-03-13T03:43:39.203Z,994.38
2019-03-13T03:44:26.922Z,994.29
2019-03-13T03:45:25.923Z,994.52
2019-03-13T03:46:25.901Z,994.60
2019-03-13T03:47:25.889Z,994.60
2019-03-13T03:48:25.894Z,994.64
2019-03-13T03:49:25.870Z,994.63
2019-03-13T03:50:25.870Z,994.54
2019-03-13T03:51:25.852Z,994.66
2019-03-13T03:52:25.838Z,994.76
2019-03-13T03:53:25.825Z,994.72
2019-03-13T03:54:25.817Z,994.78
2019-03-13T03:55:25.817Z,994.86
2019-03-13T03:56:25.799Z,994.87
2019-03-13T03:57:25.785Z,994.79
2019-03-13T03:58:29.192Z,994.95
2019-03-13T03:59:25.766Z,994.97
2019-03-13T04:00:25.768Z,995.02
2019-03-13T04:01:25.749Z,995.04
2019-03-13T04:02:25.741Z,995.03
2019-03-13T04:03:25.729Z,995.04
2019-03-13T04:04:25.739Z,995.07
2019-03-13T04:05:25.709Z,995.12
2019-03-13T04:06:25.693Z,995.06
2019-03-13T04:07:25.681Z,995.21
2019-03-13T04:08:25.674Z,995.19
2019-03-13T04:09:25.658Z,995.13
2019-03-13T04:10:25.646Z,995.18
2019-03-13T04:11:25.637Z,995.14
2019-03-13T04:12:25.629Z,995.20
2019-03-13T04:13:25.619Z,995.27
2019-03-13T04:14:25.645Z,995.35
2019-03-13T04:15:25.595Z,995.31
2019-03-13T04:16:25.589Z,995.39
2019-03-13T04:17:25.577Z,995.40
2019-03-13T04:18:25.561Z,995.42
2019-03-13T04:19:25.566Z,995.50
2019-03-13T04:20:25.540Z,995.52
2019-03-13T04:21:25.670Z,995.48
2019-03-13T04:22:25.529Z,995.49
2019-03-13T04:23:25.514Z,995.49
2019-03-13T04:24:25.525Z,995.43
2019-03-13T04:25:25.493Z,995.53
2019-03-13T04:26:25.477Z,995.55
2019-03-13T04:27:25.467Z,995.50
2019-03-13T04:28:25.455Z,995.51
2019-03-13T04:29:25.452Z,995.39
2019-03-13T04:30:25.445Z,995.62
2019-03-13T04:31:25.424Z,995.62
2019-03-13T04:32:25.404Z,995.72
2019-03-13T04:33:28.035Z,995.68
2019-03-13T04:34:25.385Z,995.66
2019-03-13T04:35:25.379Z,995.66
2019-03-13T04:36:25.382Z,995.62
2019-03-13T04:37:25.378Z,995.66
2019-03-13T04:38:25.342Z,995.66
2019-03-13T04:39:25.339Z,995.69
2019-03-13T04:40:25.331Z,995.76
2019-03-13T04:41:25.315Z,995.75
2019-03-13T04:42:25.309Z,995.68
2019-03-13T04:43:25.291Z,995.76
2019-03-13T04:44:25.277Z,995.85
2019-03-13T04:45:25.275Z,995.84
2019-03-13T04:46:25.269Z,995.88
2019-03-13T04:47:25.320Z,995.87
2019-03-13T04:48:25.240Z,995.85
2019-03-13T04:49:25.228Z,995.88
2019-03-13T04:50:25.217Z,995.89
2019-03-13T04:51:25.209Z,995.89
2019-03-13T04:52:25.201Z,995.91
2019-03-13T04:53:25.199Z,995.98
2019-03-13T04:54:25.174Z,996.02
2019-03-13T04:55:25.161Z,996.01
2019-03-13T04:56:25.149Z,995.77
2019-03-13T04:57:25.157Z,995.99
2019-03-13T04:58:25.140Z,995.93
2019-03-13T04:59:25.134Z,996.07
2019-03-13T05:00:25.130Z,996.04
2019-03-13T05:01:26.338Z,996.12
2019-03-13T05:02:25.085Z,996.17
2019-03-13T05:03:25.081Z,996.00
2019-03-13T05:04:25.134Z,996.17
2019-03-13T05:05:25.063Z,996.21
2019-03-13T05:06:25.051Z,996.17
2019-03-13T05:07:25.035Z,996.10
2019-03-13T05:08:25.028Z,996.15
2019-03-13T05:09:25.014Z,996.23
2019-03-13T05:10:25.007Z,996.12
2019-03-13T05:11:24.995Z,996.21
2019-03-13T05:12:24.981Z,996.17
2019-03-13T05:13:24.971Z,996.20
2019-03-13T05:14:24.971Z,996.26
2019-03-13T05:15:24.948Z,996.16
2019-03-13T05:16:24.947Z,996.28
2019-03-13T05:17:24.929Z,996.25
2019-03-13T05:18:24.924Z,996.31
2019-03-13T05:19:24.906Z,996.29
2019-03-13T05:20:24.897Z,996.26
2019-03-13T05:21:24.894Z,996.30
2019-03-13T05:22:24.881Z,996.33
2019-03-13T05:23:24.870Z,996.33
2019-03-13T05:24:24.859Z,996.34
2019-03-13T05:25:24.841Z,996.40
2019-03-13T05:26:24.833Z,996.34
2019-03-13T05:27:24.821Z,996.39
2019-03-13T05:28:24.811Z,996.34
2019-03-13T05:29:24.797Z,996.35
2019-03-13T05:30:24.788Z,996.38
2019-03-13T05:31:24.783Z,996.41
2019-03-13T05:32:24.769Z,996.49
2019-03-13T05:33:24.765Z,996.44
2019-03-13T05:34:24.749Z,996.53
2019-03-13T05:35:24.733Z,996.48
2019-03-13T05:36:24.726Z,996.51
2019-03-13T05:37:24.717Z,996.53
2019-03-13T05:38:24.711Z,996.52
2019-03-13T05:39:24.700Z,996.54
2019-03-13T05:40:24.683Z,996.47
2019-03-13T05:41:24.670Z,996.52
2019-03-13T05:42:24.660Z,996.60
2019-03-13T05:43:24.666Z,996.57
2019-03-13T05:44:24.649Z,996.61
2019-03-13T05:45:24.626Z,996.62
2019-03-13T05:46:24.627Z,996.58
2019-03-13T05:47:24.605Z,996.61
2019-03-13T05:48:24.597Z,996.51
2019-03-13T05:49:24.581Z,996.59
2019-03-13T05:50:24.579Z,996.65
2019-03-13T05:51:24.564Z,996.62
2019-03-13T05:52:24.551Z,996.66
2019-03-13T05:53:24.545Z,996.71
2019-03-13T05:54:24.532Z,996.72
2019-03-13T05:55:24.604Z,996.75
2019-03-13T05:56:24.507Z,996.71
2019-03-13T05:57:24.501Z,996.74
2019-03-13T05:58:24.483Z,996.68
2019-03-13T05:59:24.496Z,996.72
2019-03-13T06:00:24.472Z,996.74
2019-03-13T06:01:24.455Z,996.73
2019-03-13T06:02:24.440Z,996.73
2019-03-13T06:03:24.436Z,996.75
2019-03-13T06:04:24.423Z,996.72
2019-03-13T06:05:24.438Z,996.74
2019-03-13T06:06:24.408Z,996.82
2019-03-13T06:07:24.394Z,996.83
2019-03-13T06:08:24.379Z,996.85
2019-03-13T06:09:25.632Z,996.81
2019-03-13T06:10:24.362Z,996.87
2019-03-13T06:11:24.347Z,996.89
2019-03-13T06:12:24.341Z,996.88
2019-03-13T06:13:24.322Z,996.95
2019-03-13T06:14:24.321Z,996.91
2019-03-13T06:15:24.301Z,996.92
2019-03-13T06:16:24.297Z,996.99
2019-03-13T06:17:24.279Z,997.01
2019-03-13T06:18:24.275Z,997.03
2019-03-13T06:19:24.264Z,997.01
2019-03-13T06:20:24.249Z,997.07
2019-03-13T06:21:24.235Z,997.00
2019-03-13T06:22:24.247Z,997.08
2019-03-13T06:23:24.219Z,997.05
2019-03-13T06:24:24.220Z,997.02
2019-03-13T06:25:24.193Z,997.09
2019-03-13T06:26:24.195Z,997.09
2019-03-13T06:27:24.192Z,997.08
2019-03-13T06:28:24.174Z,997.05
2019-03-13T06:29:24.159Z,997.05
2019-03-13T06:30:24.138Z,997.10
2019-03-13T06:31:24.141Z,997.11
2019-03-13T06:32:24.117Z,997.13
2019-03-13T06:33:24.106Z,997.18
2019-03-13T06:34:24.093Z,997.16
2019-03-13T06:35:24.227Z,997.15
2019-03-13T06:36:24.093Z,997.11
2019-03-13T06:37:24.065Z,997.17
2019-03-13T06:38:24.057Z,997.25
2019-03-13T06:39:24.057Z,997.22
2019-03-13T06:40:24.037Z,997.22
2019-03-13T06:41:24.037Z,997.18
2019-03-13T06:42:24.008Z,997.25
2019-03-13T06:43:24.007Z,997.24
2019-03-13T06:44:23.993Z,997.24
2019-03-13T06:45:23.997Z,997.29
2019-03-13T06:46:23.979Z,997.29
2019-03-13T06:47:25.189Z,997.29
2019-03-13T06:48:23.953Z,997.38
2019-03-13T06:49:23.939Z,997.40
2019-03-13T06:50:23.930Z,997.28
2019-03-13T06:51:23.925Z,997.30
2019-03-13T06:52:23.903Z,997.37
2019-03-13T06:53:23.893Z,997.41
2019-03-13T06:54:23.883Z,997.33
2019-03-13T06:55:23.869Z,997.27
2019-03-13T06:56:23.873Z,997.37
2019-03-13T06:57:23.851Z,997.32
2019-03-13T06:58:23.851Z,997.32
2019-03-13T06:59:23.826Z,997.37
2019-03-13T07:00:23.815Z,997.34
2019-03-13T07:01:23.809Z,997.37
2019-03-13T07:02:23.799Z,997.37
2019-03-13T07:03:23.795Z,997.41
2019-03-13T07:04:23.793Z,997.39
2019-03-13T07:05:23.767Z,997.42
2019-03-13T07:06:23.755Z,997.36
2019-03-13T07:07:23.746Z,997.38
2019-03-13T07:08:23.761Z,997.40
2019-03-13T07:09:23.723Z,997.39
2019-03-13T07:10:23.710Z,997.39
2019-03-13T07:11:23.753Z,997.31
2019-03-13T07:12:23.693Z,997.36
2019-03-13T07:13:23.689Z,997.37
2019-03-13T07:14:23.673Z,997.38
2019-03-13T07:15:23.665Z,997.43
2019-03-13T07:16:23.648Z,997.48
2019-03-13T07:17:23.633Z,997.51
2019-03-13T07:18:23.621Z,997.45
2019-03-13T07:19:23.615Z,997.46
2019-03-13T07:20:23.655Z,997.46
2019-03-13T07:21:23.776Z,997.46
2019-03-13T07:22:23.596Z,997.43
2019-03-13T07:23:23.571Z,997.48
2019-03-13T07:24:23.557Z,997.54
2019-03-13T07:25:23.564Z,997.55
2019-03-13T07:26:23.551Z,997.42
2019-03-13T07:27:23.531Z,997.46
2019-03-13T07:28:23.510Z,997.43
2019-03-13T07:29:23.503Z,997.44
2019-03-13T07:30:23.505Z,997.46
2019-03-13T07:31:23.487Z,997.48
2019-03-13T07:32:23.481Z,997.46
2019-03-13T07:33:23.463Z,997.41
2019-03-13T07:34:23.447Z,997.43
2019-03-13T07:35:23.446Z,997.54
2019-03-13T07:36:23.427Z,997.55
2019-03-13T07:37:23.426Z,997.51
2019-03-13T07:38:23.412Z,997.44
2019-03-13T07:39:23.404Z,997.41
2019-03-13T07:40:23.389Z,997.46
2019-03-13T07:41:23.384Z,997.41
2019-03-13T07:42:23.365Z,997.44
2019-03-13T07:43:23.355Z,997.46
2019-03-13T07:44:23.351Z,997.40
2019-03-13T07:45:23.330Z,997.41
2019-03-13T07:46:23.318Z,997.39
2019-03-13T07:47:23.307Z,997.39
2019-03-13T07:48:23.303Z,997.39
2019-03-13T07:49:23.299Z,997.41
2019-03-13T07:50:23.281Z,997.34
2019-03-13T07:51:23.265Z,997.40
2019-03-13T07:52:23.261Z,997.40
2019-03-13T07:53:23.262Z,997.44
2019-03-13T07:54:23.237Z,997.80
2019-03-13T07:55:23.223Z,997.81
2019-03-13T07:56:23.215Z,997.88
2019-03-13T07:57:23.204Z,997.72
2019-03-13T07:58:23.201Z,997.72
2019-03-13T07:59:23.181Z,997.48
2019-03-13T08:00:23.173Z,997.46
2019-03-13T08:01:23.161Z,997.75
2019-03-13T08:02:23.170Z,997.78
2019-03-13T08:03:23.143Z,997.78
2019-03-13T08:04:23.134Z,997.84
2019-03-13T08:05:23.123Z,997.78
2019-03-13T08:06:23.111Z,997.81
2019-03-13T08:07:23.129Z,997.84
2019-03-13T08:08:23.086Z,997.98
2019-03-13T08:09:23.071Z,997.85
2019-03-13T08:10:23.066Z,997.69
2019-03-13T08:11:23.066Z,997.42
2019-03-13T08:12:23.039Z,997.34
2019-03-13T08:13:23.039Z,997.71
2019-03-13T08:14:23.023Z,997.84
2019-03-13T08:15:23.009Z,997.83
2019-03-13T08:16:23.004Z,997.88
2019-03-13T08:17:22.993Z,997.38
2019-03-13T08:18:22.980Z,997.55
2019-03-13T08:19:24.241Z,997.93
2019-03-13T08:20:22.972Z,997.47
2019-03-13T08:21:22.953Z,997.95
2019-03-13T08:22:22.936Z,997.91
2019-03-13T08:23:22.925Z,997.84
2019-03-13T08:24:22.913Z,997.70
2019-03-13T08:25:22.903Z,997.48
2019-03-13T08:26:22.894Z,997.50
2019-03-13T08:27:22.880Z,997.32
2019-03-13T08:28:22.877Z,997.27
2019-03-13T08:29:22.862Z,997.46
2019-03-13T08:30:22.859Z,997.51
2019-03-13T08:31:22.839Z,997.42
2019-03-13T08:32:22.827Z,997.35
2019-03-13T08:33:22.815Z,997.40
2019-03-13T08:34:22.821Z,997.62
2019-03-13T08:35:22.798Z,997.56
2019-03-13T08:36:22.789Z,997.42
2019-03-13T08:37:22.776Z,997.26
2019-03-13T08:38:22.772Z,997.31
2019-03-13T08:39:22.761Z,997.32
2019-03-13T08:40:22.751Z,997.44
2019-03-13T08:41:22.735Z,997.37
2019-03-13T08:42:22.719Z,997.32
2019-03-13T08:43:22.716Z,997.30
2019-03-13T08:44:22.703Z,997.27
2019-03-13T08:45:22.696Z,997.43
2019-03-13T08:46:22.683Z,997.61
2019-03-13T08:47:22.673Z,997.28
2019-03-13T08:48:22.687Z,997.56
2019-03-13T08:49:22.649Z,997.37
2019-03-13T08:50:22.636Z,997.39
2019-03-13T08:51:22.635Z,997.13
2019-03-13T08:52:22.617Z,997.10
2019-03-13T08:53:22.601Z,997.23
2019-03-13T08:54:22.599Z,997.37
2019-03-13T08:55:22.591Z,997.36
2019-03-13T08:56:22.581Z,997.70
2019-03-13T08:57:22.569Z,997.23
2019-03-13T08:58:22.546Z,997.19
2019-03-13T08:59:23.705Z,997.05
2019-03-13T09:00:22.533Z,997.21
2019-03-13T09:01:22.529Z,997.39
2019-03-13T09:02:22.526Z,997.65
2019-03-13T09:03:22.501Z,997.28
2019-03-13T09:04:22.482Z,997.47
2019-03-13T09:05:22.479Z,997.30
2019-03-13T09:06:22.479Z,997.26
2019-03-13T09:07:22.453Z,997.50
2019-03-13T09:08:22.452Z,997.71
2019-03-13T09:09:22.438Z,997.37
2019-03-13T09:10:22.846Z,997.02
2019-03-13T09:11:22.412Z,997.12
2019-03-13T09:12:22.397Z,997.14
2019-03-13T09:13:22.392Z,997.15
2019-03-13T09:14:22.388Z,997.08
2019-03-13T09:15:22.368Z,997.04
2019-03-13T09:16:22.359Z,997.45
2019-03-13T09:17:22.356Z,997.47
2019-03-13T09:18:22.347Z,997.59
2019-03-13T09:19:22.335Z,997.39
2019-03-13T09:20:22.330Z,996.99
2019-03-13T09:21:22.309Z,997.24
2019-03-13T09:22:22.295Z,997.11
2019-03-13T09:23:22.288Z,997.01
2019-03-13T09:24:22.279Z,996.87
2019-03-13T09:25:22.273Z,997.08
2019-03-13T09:26:22.253Z,997.30
2019-03-13T09:27:22.246Z,996.97
2019-03-13T09:28:22.235Z,996.96
2019-03-13T09:29:22.322Z,997.04
2019-03-13T09:30:22.209Z,996.82
2019-03-13T09:31:25.335Z,997.13
2019-03-13T09:32:22.194Z,996.83
2019-03-13T09:33:22.178Z,996.75
2019-03-13T09:34:22.165Z,997.30
2019-03-13T09:35:22.165Z,997.63
2019-03-13T09:36:22.146Z,997.35
2019-03-13T09:37:22.143Z,997.39
2019-03-13T09:38:22.130Z,997.40
2019-03-13T09:39:22.111Z,997.37
2019-03-13T09:40:22.102Z,997.38
2019-03-13T09:41:22.090Z,997.37
2019-03-13T09:42:22.099Z,996.93
2019-03-13T09:43:22.096Z,996.81
2019-03-13T09:44:22.058Z,996.86
2019-03-13T09:45:22.055Z,996.67
2019-03-13T09:46:22.039Z,996.73
2019-03-13T09:47:22.033Z,997.17
2019-03-13T09:48:22.026Z,996.88
2019-03-13T09:49:22.009Z,996.63
2019-03-13T09:50:21.996Z,996.85
2019-03-13T09:51:22.007Z,996.64
2019-03-13T09:52:21.995Z,996.62
2019-03-13T09:53:21.972Z,996.92
2019-03-13T09:54:21.958Z,996.71
2019-03-13T09:55:21.942Z,996.71
2019-03-13T09:56:21.929Z,996.68
2019-03-13T09:57:21.927Z,996.97
2019-03-13T09:58:21.912Z,996.66
2019-03-13T09:59:21.908Z,997.30
2019-03-13T10:00:21.898Z,996.71
2019-03-13T10:01:21.883Z,996.62
2019-03-13T10:02:21.872Z,996.73
2019-03-13T10:03:21.863Z,997.34
2019-03-13T10:04:21.847Z,997.19
2019-03-13T10:05:21.851Z,996.85
2019-03-13T10:06:22.548Z,996.61
2019-03-13T10:07:21.815Z,996.55
2019-03-13T10:08:21.806Z,996.44
2019-03-13T10:09:21.795Z,996.76
2019-03-13T10:10:21.784Z,996.79
2019-03-13T10:11:21.777Z,996.86
2019-03-13T10:12:21.767Z,997.12
2019-03-13T10:13:21.751Z,997.13
2019-03-13T10:14:21.738Z,996.97
2019-03-13T10:15:21.727Z,996.68
2019-03-13T10:16:21.722Z,996.41
2019-03-13T10:17:21.711Z,996.40
2019-03-13T10:18:21.696Z,996.44
2019-03-13T10:19:21.687Z,996.40
2019-03-13T10:20:21.677Z,997.17
2019-03-13T10:21:21.665Z,996.45
2019-03-13T10:22:21.651Z,996.98
2019-03-13T10:23:21.640Z,996.41
2019-03-13T10:24:21.631Z,996.46
2019-03-13T10:25:21.626Z,996.40
2019-03-13T10:26:21.696Z,996.27
2019-03-13T10:27:21.595Z,996.33
2019-03-13T10:28:21.615Z,996.35
2019-03-13T10:29:21.577Z,996.41
2019-03-13T10:30:21.563Z,996.36
2019-03-13T10:31:21.553Z,996.49
2019-03-13T10:32:21.552Z,996.46
2019-03-13T10:33:21.543Z,996.26
2019-03-13T10:34:21.584Z,996.38
2019-03-13T10:35:21.515Z,996.15
2019-03-13T10:36:21.510Z,996.25
2019-03-13T10:37:21.491Z,996.33
2019-03-13T10:38:21.481Z,996.42
2019-03-13T10:39:21.473Z,996.39
2019-03-13T10:40:21.459Z,996.42
2019-03-13T10:41:21.447Z,996.87
2019-03-13T10:42:21.437Z,996.71
2019-03-13T10:43:21.430Z,996.25
2019-03-13T10:44:21.414Z,996.15
2019-03-13T10:45:21.483Z,996.09
2019-03-13T10:46:21.392Z,996.47
2019-03-13T10:47:21.379Z,996.26
2019-03-13T10:48:21.369Z,996.19
2019-03-13T10:49:21.359Z,996.23
2019-03-13T10:50:21.357Z,996.17
2019-03-13T10:51:21.363Z,995.98
2019-03-13T10:52:21.328Z,996.48
2019-03-13T10:53:21.323Z,996.11
2019-03-13T10:54:21.307Z,996.10
2019-03-13T10:55:21.301Z,996.21
2019-03-13T10:56:21.334Z,996.00
2019-03-13T10:57:21.276Z,996.46
2019-03-13T10:58:21.268Z,996.00
2019-03-13T10:59:21.247Z,995.95
2019-03-13T11:00:21.251Z,995.96
2019-03-13T11:01:21.234Z,996.49
2019-03-13T11:02:21.225Z,996.03
2019-03-13T11:03:21.206Z,996.02
2019-03-13T11:04:21.210Z,996.01
2019-03-13T11:05:21.189Z,996.13
2019-03-13T11:06:21.193Z,996.11
2019-03-13T11:07:21.171Z,996.08
2019-03-13T11:08:21.161Z,996.12
2019-03-13T11:09:21.149Z,996.03
2019-03-13T11:10:21.140Z,996.00
2019-03-13T11:11:21.130Z,995.96
2019-03-13T11:12:21.116Z,995.90
2019-03-13T11:13:21.106Z,995.88
2019-03-13T11:14:21.098Z,995.91
2019-03-13T11:15:21.081Z,995.92
2019-03-13T11:16:21.068Z,995.98
2019-03-13T11:17:21.061Z,995.95
2019-03-13T11:18:21.050Z,995.92
2019-03-13T11:19:21.045Z,995.88
2019-03-13T11:20:21.028Z,995.91
2019-03-13T11:21:21.017Z,995.92
2019-03-13T11:22:21.005Z,995.87
2019-03-13T11:23:20.988Z,995.91
2019-03-13T11:24:20.990Z,995.87
2019-03-13T11:25:21.038Z,995.88
2019-03-13T11:26:20.960Z,995.87
2019-03-13T11:27:20.967Z,996.04
2019-03-13T11:28:20.939Z,995.92
2019-03-13T11:29:20.924Z,995.96
2019-03-13T11:30:21.034Z,995.98
2019-03-13T11:31:20.904Z,995.97
2019-03-13T11:32:20.893Z,995.83
2019-03-13T11:33:20.897Z,995.90
2019-03-13T11:34:20.884Z,995.86
2019-03-13T11:35:20.866Z,995.91
2019-03-13T11:36:20.859Z,995.96
2019-03-13T11:37:20.851Z,995.85
2019-03-13T11:38:20.833Z,995.88
2019-03-13T11:39:20.817Z,995.96
2019-03-13T11:40:20.813Z,995.91
2019-03-13T11:41:20.809Z,995.87
2019-03-13T11:42:20.787Z,995.93
2019-03-13T11:43:20.776Z,995.89
2019-03-13T11:44:20.761Z,995.93
2019-03-13T11:45:20.753Z,995.99
2019-03-13T11:46:20.741Z,995.99
2019-03-13T11:47:20.733Z,995.96
2019-03-13T11:48:20.723Z,995.91
2019-03-13T11:49:20.707Z,995.91
2019-03-13T11:50:20.698Z,995.95
2019-03-13T11:51:20.691Z,995.97
2019-03-13T11:52:20.679Z,996.07
2019-03-13T11:53:20.671Z,995.81
2019-03-13T11:54:20.661Z,995.89
2019-03-13T11:55:20.647Z,995.90
2019-03-13T11:56:20.631Z,995.88
2019-03-13T11:57:20.635Z,995.99
2019-03-13T11:58:20.690Z,996.12
2019-03-13T11:59:20.601Z,995.92
2019-03-13T12:00:20.663Z,996.02
2019-03-13T12:01:20.576Z,995.91
2019-03-13T12:02:20.571Z,995.95
2019-03-13T12:03:20.581Z,995.94
2019-03-13T12:04:20.551Z,995.96
2019-03-13T12:05:20.546Z,995.97
2019-03-13T12:06:20.521Z,995.94
2019-03-13T12:07:20.514Z,995.91
2019-03-13T12:08:20.502Z,995.99
2019-03-13T12:09:20.495Z,995.94
2019-03-13T12:10:20.479Z,996.00
2019-03-13T12:11:20.476Z,995.99
2019-03-13T12:12:20.454Z,995.91
2019-03-13T12:13:20.449Z,995.99
2019-03-13T12:14:20.436Z,996.03
2019-03-13T12:15:20.427Z,996.07
2019-03-13T12:16:20.437Z,996.04
2019-03-13T12:17:20.401Z,996.06
2019-03-13T12:18:20.392Z,996.15
2019-03-13T12:19:20.386Z,996.06
2019-03-13T12:20:20.377Z,996.01
2019-03-13T12:21:20.374Z,995.99
2019-03-13T12:22:20.354Z,995.98
2019-03-13T12:23:20.342Z,995.98
2019-03-13T12:24:20.326Z,996.00
2019-03-13T12:25:20.315Z,995.93
2019-03-13T12:26:20.306Z,995.83
2019-03-13T12:27:20.302Z,995.93
2019-03-13T12:28:20.281Z,995.93